sensor_id;sensor_type;location;lat;lon;timestamp;P1;durP1;ratioP1;P2;durP2;ratioP2
1475;SDS011;730;48.870;12.542;2022-09-09T00:01:54;5.63;;;5.13;;
1475;SDS011;730;48.870;12.542;2022-09-09T00:04:33;5.30;;;4.80;;
1475;SDS011;730;48.870;12.542;2022-09-09T00:07:05;6.40;;;4.80;;
1475;SDS011;730;48.870;12.542;2022-09-09T00:15:28;5.80;;;4.80;;
1475;SDS011;730;48.870;12.542;2022-09-09T00:18:05;5.77;;;4.97;;
1475;SDS011;730;48.870;12.542;2022-09-09T00:20:43;4.70;;;4.30;;
1475;SDS011;730;48.870;12.542;2022-09-09T00:23:36;5.70;;;5.20;;
1475;SDS011;730;48.870;12.542;2022-09-09T00:28:46;5.17;;;4.67;;
1475;SDS011;730;48.870;12.542;2022-09-09T00:31:22;5.43;;;4.73;;
1475;SDS011;730;48.870;12.542;2022-09-09T00:33:51;4.73;;;4.40;;
1475;SDS011;730;48.870;12.542;2022-09-09T00:36:21;5.67;;;4.43;;
1475;SDS011;730;48.870;12.542;2022-09-09T00:39:00;4.87;;;4.47;;
1475;SDS011;730;48.870;12.542;2022-09-09T00:44:00;4.33;;;3.93;;
1475;SDS011;730;48.870;12.542;2022-09-09T00:49:18;4.97;;;4.57;;
1475;SDS011;730;48.870;12.542;2022-09-09T00:51:52;4.90;;;4.50;;
1475;SDS011;730;48.870;12.542;2022-09-09T00:57:35;5.80;;;5.30;;
1475;SDS011;730;48.870;12.542;2022-09-09T01:08:03;5.33;;;4.93;;
1475;SDS011;730;48.870;12.542;2022-09-09T01:10:55;5.33;;;4.83;;
1475;SDS011;730;48.870;12.542;2022-09-09T01:13:27;4.60;;;4.23;;
1475;SDS011;730;48.870;12.542;2022-09-09T01:15:58;5.33;;;4.60;;
1475;SDS011;730;48.870;12.542;2022-09-09T01:18:27;5.17;;;4.70;;
1475;SDS011;730;48.870;12.542;2022-09-09T01:24:08;5.37;;;4.97;;
1475;SDS011;730;48.870;12.542;2022-09-09T01:26:44;5.70;;;5.20;;
1475;SDS011;730;48.870;12.542;2022-09-09T01:29:14;6.23;;;5.73;;
1475;SDS011;730;48.870;12.542;2022-09-09T01:32:35;4.93;;;4.50;;
1475;SDS011;730;48.870;12.542;2022-09-09T01:34:48;5.50;;;4.57;;
1475;SDS011;730;48.870;12.542;2022-09-09T01:37:14;5.10;;;4.60;;
1475;SDS011;730;48.870;12.542;2022-09-09T01:39:41;6.47;;;5.20;;
1475;SDS011;730;48.870;12.542;2022-09-09T01:42:09;5.13;;;4.63;;
1475;SDS011;730;48.870;12.542;2022-09-09T01:44:38;7.23;;;4.77;;
1475;SDS011;730;48.870;12.542;2022-09-09T01:47:04;6.00;;;4.93;;
1475;SDS011;730;48.870;12.542;2022-09-09T01:49:31;5.03;;;4.53;;
1475;SDS011;730;48.870;12.542;2022-09-09T01:51:58;4.57;;;4.27;;
1475;SDS011;730;48.870;12.542;2022-09-09T01:54:26;5.63;;;5.03;;
1475;SDS011;730;48.870;12.542;2022-09-09T01:59:51;6.70;;;5.30;;
1475;SDS011;730;48.870;12.542;2022-09-09T02:02:25;5.87;;;5.03;;
1475;SDS011;730;48.870;12.542;2022-09-09T02:05:19;7.53;;;4.70;;
1475;SDS011;730;48.870;12.542;2022-09-09T02:07:43;5.60;;;5.00;;
1475;SDS011;730;48.870;12.542;2022-09-09T02:10:20;5.30;;;4.77;;
1475;SDS011;730;48.870;12.542;2022-09-09T02:12:55;5.40;;;4.90;;
1475;SDS011;730;48.870;12.542;2022-09-09T02:15:50;4.63;;;4.20;;
1475;SDS011;730;48.870;12.542;2022-09-09T02:18:24;5.20;;;4.70;;
1475;SDS011;730;48.870;12.542;2022-09-09T02:20:58;6.20;;;5.20;;
1475;SDS011;730;48.870;12.542;2022-09-09T02:23:24;6.03;;;5.43;;
1475;SDS011;730;48.870;12.542;2022-09-09T02:25:50;5.37;;;4.97;;
1475;SDS011;730;48.870;12.542;2022-09-09T02:28:18;4.87;;;4.47;;
1475;SDS011;730;48.870;12.542;2022-09-09T02:30:46;5.23;;;4.83;;
1475;SDS011;730;48.870;12.542;2022-09-09T02:33:20;4.97;;;4.47;;
1475;SDS011;730;48.870;12.542;2022-09-09T02:35:51;5.63;;;5.00;;
1475;SDS011;730;48.870;12.542;2022-09-09T02:38:21;5.40;;;4.60;;
1475;SDS011;730;48.870;12.542;2022-09-09T02:40:51;5.43;;;4.90;;
1475;SDS011;730;48.870;12.542;2022-09-09T02:43:17;5.57;;;4.90;;
1475;SDS011;730;48.870;12.542;2022-09-09T02:49:27;7.60;;;5.50;;
1475;SDS011;730;48.870;12.542;2022-09-09T02:52:00;5.47;;;4.97;;
1475;SDS011;730;48.870;12.542;2022-09-09T02:54:37;8.43;;;5.40;;
1475;SDS011;730;48.870;12.542;2022-09-09T02:59:29;6.73;;;5.87;;
1475;SDS011;730;48.870;12.542;2022-09-09T03:01:56;6.17;;;5.67;;
1475;SDS011;730;48.870;12.542;2022-09-09T03:04:21;5.20;;;4.80;;
1475;SDS011;730;48.870;12.542;2022-09-09T03:06:47;8.83;;;5.27;;
1475;SDS011;730;48.870;12.542;2022-09-09T03:09:14;6.27;;;5.50;;
1475;SDS011;730;48.870;12.542;2022-09-09T03:11:39;6.97;;;6.17;;
1475;SDS011;730;48.870;12.542;2022-09-09T03:14:05;7.07;;;6.47;;
1475;SDS011;730;48.870;12.542;2022-09-09T03:16:31;5.70;;;5.10;;
1475;SDS011;730;48.870;12.542;2022-09-09T03:18:58;5.00;;;4.60;;
1475;SDS011;730;48.870;12.542;2022-09-09T03:21:23;5.13;;;4.67;;
1475;SDS011;730;48.870;12.542;2022-09-09T03:23:49;5.10;;;4.70;;
1475;SDS011;730;48.870;12.542;2022-09-09T03:26:15;7.07;;;6.37;;
1475;SDS011;730;48.870;12.542;2022-09-09T03:28:41;6.93;;;6.23;;
1475;SDS011;730;48.870;12.542;2022-09-09T03:31:07;6.80;;;6.10;;
1475;SDS011;730;48.870;12.542;2022-09-09T03:33:35;6.37;;;5.70;;
1475;SDS011;730;48.870;12.542;2022-09-09T03:36:02;7.53;;;6.83;;
1475;SDS011;730;48.870;12.542;2022-09-09T03:38:27;7.83;;;6.43;;
1475;SDS011;730;48.870;12.542;2022-09-09T03:40:54;7.87;;;6.93;;
1475;SDS011;730;48.870;12.542;2022-09-09T03:43:22;7.50;;;6.80;;
1475;SDS011;730;48.870;12.542;2022-09-09T03:45:49;7.87;;;7.27;;
1475;SDS011;730;48.870;12.542;2022-09-09T03:48:15;7.83;;;7.17;;
1475;SDS011;730;48.870;12.542;2022-09-09T03:50:51;10.30;;;7.47;;
1475;SDS011;730;48.870;12.542;2022-09-09T03:53:18;9.70;;;8.43;;
1475;SDS011;730;48.870;12.542;2022-09-09T03:55:49;8.23;;;7.53;;
1475;SDS011;730;48.870;12.542;2022-09-09T03:58:20;9.67;;;8.67;;
1475;SDS011;730;48.870;12.542;2022-09-09T04:00:56;10.00;;;9.10;;
1475;SDS011;730;48.870;12.542;2022-09-09T04:03:24;8.93;;;8.03;;
1475;SDS011;730;48.870;12.542;2022-09-09T04:05:53;10.20;;;9.20;;
1475;SDS011;730;48.870;12.542;2022-09-09T04:08:19;9.40;;;8.50;;
1475;SDS011;730;48.870;12.542;2022-09-09T04:10:46;10.40;;;9.23;;
1475;SDS011;730;48.870;12.542;2022-09-09T04:13:13;10.63;;;9.63;;
1475;SDS011;730;48.870;12.542;2022-09-09T04:15:42;12.47;;;10.00;;
1475;SDS011;730;48.870;12.542;2022-09-09T04:18:08;15.10;;;10.40;;
1475;SDS011;730;48.870;12.542;2022-09-09T04:20:34;11.40;;;9.77;;
1475;SDS011;730;48.870;12.542;2022-09-09T04:23:00;12.57;;;11.50;;
1475;SDS011;730;48.870;12.542;2022-09-09T04:25:26;11.60;;;9.73;;
1475;SDS011;730;48.870;12.542;2022-09-09T04:27:55;10.77;;;9.67;;
1475;SDS011;730;48.870;12.542;2022-09-09T04:30:22;10.50;;;9.23;;
1475;SDS011;730;48.870;12.542;2022-09-09T04:32:48;10.60;;;9.50;;
1475;SDS011;730;48.870;12.542;2022-09-09T04:35:13;11.00;;;9.90;;
1475;SDS011;730;48.870;12.542;2022-09-09T04:37:39;10.47;;;9.33;;
1475;SDS011;730;48.870;12.542;2022-09-09T04:40:06;14.13;;;10.27;;
1475;SDS011;730;48.870;12.542;2022-09-09T04:42:38;10.80;;;9.70;;
1475;SDS011;730;48.870;12.542;2022-09-09T04:45:05;10.60;;;9.60;;
1475;SDS011;730;48.870;12.542;2022-09-09T04:47:32;11.27;;;10.30;;
1475;SDS011;730;48.870;12.542;2022-09-09T04:49:57;15.17;;;11.40;;
1475;SDS011;730;48.870;12.542;2022-09-09T04:52:23;12.33;;;10.80;;
1475;SDS011;730;48.870;12.542;2022-09-09T04:54:48;15.03;;;11.40;;
1475;SDS011;730;48.870;12.542;2022-09-09T04:57:14;13.80;;;11.47;;
1475;SDS011;730;48.870;12.542;2022-09-09T04:59:40;13.20;;;11.87;;
1475;SDS011;730;48.870;12.542;2022-09-09T05:02:05;12.20;;;10.70;;
1475;SDS011;730;48.870;12.542;2022-09-09T05:04:31;12.33;;;10.17;;
1475;SDS011;730;48.870;12.542;2022-09-09T05:06:58;12.70;;;10.97;;
1475;SDS011;730;48.870;12.542;2022-09-09T05:09:24;10.90;;;9.90;;
1475;SDS011;730;48.870;12.542;2022-09-09T05:11:50;14.93;;;10.07;;
1475;SDS011;730;48.870;12.542;2022-09-09T05:14:16;12.33;;;11.03;;
1475;SDS011;730;48.870;12.542;2022-09-09T05:16:43;12.03;;;10.87;;
1475;SDS011;730;48.870;12.542;2022-09-09T05:19:10;13.03;;;11.00;;
1475;SDS011;730;48.870;12.542;2022-09-09T05:21:36;10.07;;;9.17;;
1475;SDS011;730;48.870;12.542;2022-09-09T05:24:02;10.30;;;9.30;;
1475;SDS011;730;48.870;12.542;2022-09-09T05:26:27;10.50;;;9.50;;
1475;SDS011;730;48.870;12.542;2022-09-09T05:28:54;11.57;;;10.50;;
1475;SDS011;730;48.870;12.542;2022-09-09T05:31:20;11.87;;;10.70;;
1475;SDS011;730;48.870;12.542;2022-09-09T05:33:46;13.63;;;10.90;;
1475;SDS011;730;48.870;12.542;2022-09-09T05:36:15;11.60;;;10.53;;
1475;SDS011;730;48.870;12.542;2022-09-09T05:38:42;10.73;;;9.60;;
1475;SDS011;730;48.870;12.542;2022-09-09T05:41:09;11.23;;;10.03;;
1475;SDS011;730;48.870;12.542;2022-09-09T05:43:40;12.50;;;11.30;;
1475;SDS011;730;48.870;12.542;2022-09-09T05:46:10;12.03;;;10.83;;
1475;SDS011;730;48.870;12.542;2022-09-09T05:48:38;11.03;;;9.93;;
1475;SDS011;730;48.870;12.542;2022-09-09T05:51:05;12.33;;;10.60;;
1475;SDS011;730;48.870;12.542;2022-09-09T05:53:33;11.70;;;10.60;;
1475;SDS011;730;48.870;12.542;2022-09-09T05:56:12;10.17;;;9.10;;
1475;SDS011;730;48.870;12.542;2022-09-09T05:58:46;10.60;;;9.43;;
1475;SDS011;730;48.870;12.542;2022-09-09T06:01:13;11.80;;;10.60;;
1475;SDS011;730;48.870;12.542;2022-09-09T06:03:40;10.73;;;9.73;;
1475;SDS011;730;48.870;12.542;2022-09-09T06:06:08;13.30;;;8.50;;
1475;SDS011;730;48.870;12.542;2022-09-09T06:08:38;11.40;;;10.40;;
1475;SDS011;730;48.870;12.542;2022-09-09T06:13:39;10.33;;;9.30;;
1475;SDS011;730;48.870;12.542;2022-09-09T06:16:05;10.30;;;9.27;;
1475;SDS011;730;48.870;12.542;2022-09-09T06:18:33;11.70;;;10.60;;
1475;SDS011;730;48.870;12.542;2022-09-09T06:21:00;11.00;;;9.67;;
1475;SDS011;730;48.870;12.542;2022-09-09T06:23:29;10.13;;;9.07;;
1475;SDS011;730;48.870;12.542;2022-09-09T06:26:02;11.30;;;10.20;;
1475;SDS011;730;48.870;12.542;2022-09-09T06:28:34;10.83;;;9.60;;
1475;SDS011;730;48.870;12.542;2022-09-09T06:31:01;9.23;;;8.33;;
1475;SDS011;730;48.870;12.542;2022-09-09T06:33:35;9.10;;;8.20;;
1475;SDS011;730;48.870;12.542;2022-09-09T06:36:06;8.63;;;7.70;;
1475;SDS011;730;48.870;12.542;2022-09-09T06:38:36;7.97;;;7.17;;
1475;SDS011;730;48.870;12.542;2022-09-09T06:41:02;7.97;;;7.17;;
1475;SDS011;730;48.870;12.542;2022-09-09T06:43:28;7.70;;;7.00;;
1475;SDS011;730;48.870;12.542;2022-09-09T06:45:55;7.40;;;6.70;;
1475;SDS011;730;48.870;12.542;2022-09-09T06:48:21;7.00;;;6.40;;
1475;SDS011;730;48.870;12.542;2022-09-09T06:50:47;6.20;;;5.43;;
1475;SDS011;730;48.870;12.542;2022-09-09T06:53:17;6.53;;;5.93;;
1475;SDS011;730;48.870;12.542;2022-09-09T06:55:44;7.27;;;6.57;;
1475;SDS011;730;48.870;12.542;2022-09-09T06:58:10;7.13;;;6.50;;
1475;SDS011;730;48.870;12.542;2022-09-09T07:00:35;6.57;;;5.97;;
1475;SDS011;730;48.870;12.542;2022-09-09T07:03:03;8.23;;;6.53;;
1475;SDS011;730;48.870;12.542;2022-09-09T07:05:29;7.47;;;6.77;;
1475;SDS011;730;48.870;12.542;2022-09-09T07:07:54;7.53;;;6.83;;
1475;SDS011;730;48.870;12.542;2022-09-09T07:10:20;8.07;;;7.37;;
1475;SDS011;730;48.870;12.542;2022-09-09T07:12:50;7.67;;;6.90;;
1475;SDS011;730;48.870;12.542;2022-09-09T07:15:17;6.63;;;6.03;;
1475;SDS011;730;48.870;12.542;2022-09-09T07:17:43;8.40;;;7.60;;
1475;SDS011;730;48.870;12.542;2022-09-09T07:20:09;8.10;;;7.40;;
1475;SDS011;730;48.870;12.542;2022-09-09T07:22:36;7.23;;;6.53;;
1475;SDS011;730;48.870;12.542;2022-09-09T07:25:02;6.97;;;6.30;;
1475;SDS011;730;48.870;12.542;2022-09-09T07:27:28;6.63;;;6.00;;
1475;SDS011;730;48.870;12.542;2022-09-09T07:29:53;7.17;;;6.50;;
1475;SDS011;730;48.870;12.542;2022-09-09T07:32:19;8.03;;;6.70;;
1475;SDS011;730;48.870;12.542;2022-09-09T07:34:45;7.27;;;6.33;;
1475;SDS011;730;48.870;12.542;2022-09-09T07:37:11;8.13;;;7.53;;
1475;SDS011;730;48.870;12.542;2022-09-09T07:39:38;8.80;;;7.83;;
1475;SDS011;730;48.870;12.542;2022-09-09T07:42:04;8.23;;;6.77;;
1475;SDS011;730;48.870;12.542;2022-09-09T07:44:30;7.67;;;6.97;;
1475;SDS011;730;48.870;12.542;2022-09-09T07:46:59;7.30;;;6.50;;
1475;SDS011;730;48.870;12.542;2022-09-09T07:49:25;7.90;;;7.20;;
1475;SDS011;730;48.870;12.542;2022-09-09T07:51:51;7.77;;;7.17;;
1475;SDS011;730;48.870;12.542;2022-09-09T07:54:17;6.70;;;6.10;;
1475;SDS011;730;48.870;12.542;2022-09-09T07:56:48;7.37;;;6.67;;
1475;SDS011;730;48.870;12.542;2022-09-09T07:59:14;8.20;;;7.03;;
1475;SDS011;730;48.870;12.542;2022-09-09T08:01:44;7.17;;;6.57;;
1475;SDS011;730;48.870;12.542;2022-09-09T08:04:13;7.47;;;6.20;;
1475;SDS011;730;48.870;12.542;2022-09-09T08:06:42;7.30;;;6.60;;
1475;SDS011;730;48.870;12.542;2022-09-09T08:09:13;6.33;;;5.83;;
1475;SDS011;730;48.870;12.542;2022-09-09T08:11:39;6.53;;;5.43;;
1475;SDS011;730;48.870;12.542;2022-09-09T08:14:06;7.57;;;6.90;;
1475;SDS011;730;48.870;12.542;2022-09-09T08:16:34;5.70;;;5.20;;
1475;SDS011;730;48.870;12.542;2022-09-09T08:19:03;6.63;;;6.03;;
1475;SDS011;730;48.870;12.542;2022-09-09T08:21:31;6.23;;;5.60;;
1475;SDS011;730;48.870;12.542;2022-09-09T08:23:58;7.20;;;6.60;;
1475;SDS011;730;48.870;12.542;2022-09-09T08:26:26;6.00;;;5.40;;
1475;SDS011;730;48.870;12.542;2022-09-09T08:28:54;5.97;;;5.43;;
1475;SDS011;730;48.870;12.542;2022-09-09T08:31:28;6.67;;;5.30;;
1475;SDS011;730;48.870;12.542;2022-09-09T08:33:59;6.33;;;5.70;;
1475;SDS011;730;48.870;12.542;2022-09-09T08:36:27;5.57;;;5.03;;
1475;SDS011;730;48.870;12.542;2022-09-09T08:38:55;7.17;;;5.23;;
1475;SDS011;730;48.870;12.542;2022-09-09T08:44:17;6.10;;;5.50;;
1475;SDS011;730;48.870;12.542;2022-09-09T08:58:17;5.77;;;5.27;;
1475;SDS011;730;48.870;12.542;2022-09-09T09:00:54;5.10;;;4.60;;
1475;SDS011;730;48.870;12.542;2022-09-09T09:03:48;5.87;;;5.27;;
1475;SDS011;730;48.870;12.542;2022-09-09T09:06:54;8.90;;;6.20;;
1475;SDS011;730;48.870;12.542;2022-09-09T09:09:44;7.57;;;5.60;;
1475;SDS011;730;48.870;12.542;2022-09-09T09:12:24;6.53;;;5.93;;
1475;SDS011;730;48.870;12.542;2022-09-09T09:14:53;13.93;;;5.33;;
1475;SDS011;730;48.870;12.542;2022-09-09T09:17:23;6.57;;;4.93;;
1475;SDS011;730;48.870;12.542;2022-09-09T09:19:52;6.20;;;5.60;;
1475;SDS011;730;48.870;12.542;2022-09-09T09:24:50;6.03;;;5.20;;
1475;SDS011;730;48.870;12.542;2022-09-09T09:29:57;6.40;;;4.50;;
1475;SDS011;730;48.870;12.542;2022-09-09T09:32:25;9.70;;;6.00;;
1475;SDS011;730;48.870;12.542;2022-09-09T09:34:56;6.23;;;5.63;;
1475;SDS011;730;48.870;12.542;2022-09-09T09:37:32;6.00;;;5.20;;
1475;SDS011;730;48.870;12.542;2022-09-09T09:40:12;6.43;;;5.83;;
1475;SDS011;730;48.870;12.542;2022-09-09T09:48:02;5.90;;;4.87;;
1475;SDS011;730;48.870;12.542;2022-09-09T09:50:30;5.97;;;5.47;;
1475;SDS011;730;48.870;12.542;2022-09-09T09:52:58;5.50;;;5.00;;
1475;SDS011;730;48.870;12.542;2022-09-09T09:55:27;5.23;;;4.83;;
1475;SDS011;730;48.870;12.542;2022-09-09T09:58:03;5.70;;;4.73;;
1475;SDS011;730;48.870;12.542;2022-09-09T10:00:29;5.03;;;4.53;;
1475;SDS011;730;48.870;12.542;2022-09-09T10:02:55;6.00;;;5.40;;
1475;SDS011;730;48.870;12.542;2022-09-09T10:05:23;4.23;;;3.83;;
1475;SDS011;730;48.870;12.542;2022-09-09T10:13:47;5.47;;;4.97;;
1475;SDS011;730;48.870;12.542;2022-09-09T10:16:35;5.00;;;4.20;;
1475;SDS011;730;48.870;12.542;2022-09-09T10:19:04;6.23;;;5.50;;
1475;SDS011;730;48.870;12.542;2022-09-09T10:21:54;4.70;;;4.30;;
1475;SDS011;730;48.870;12.542;2022-09-09T10:24:33;5.00;;;4.50;;
1475;SDS011;730;48.870;12.542;2022-09-09T10:27:18;6.20;;;5.60;;
1475;SDS011;730;48.870;12.542;2022-09-09T10:40:33;4.20;;;3.80;;
1475;SDS011;730;48.870;12.542;2022-09-09T10:43:07;5.07;;;4.67;;
1475;SDS011;730;48.870;12.542;2022-09-09T10:48:46;5.77;;;4.00;;
1475;SDS011;730;48.870;12.542;2022-09-09T10:53:54;7.93;;;4.93;;
1475;SDS011;730;48.870;12.542;2022-09-09T10:56:37;6.20;;;3.90;;
1475;SDS011;730;48.870;12.542;2022-09-09T11:06:48;5.30;;;4.80;;
1475;SDS011;730;48.870;12.542;2022-09-09T11:09:19;5.43;;;4.20;;
1475;SDS011;730;48.870;12.542;2022-09-09T11:11:55;4.77;;;4.30;;
1475;SDS011;730;48.870;12.542;2022-09-09T11:16:57;6.80;;;5.30;;
1475;SDS011;730;48.870;12.542;2022-09-09T11:19:38;5.20;;;4.80;;
1475;SDS011;730;48.870;12.542;2022-09-09T11:22:14;7.27;;;5.43;;
1475;SDS011;730;48.870;12.542;2022-09-09T11:27:37;5.93;;;4.50;;
1475;SDS011;730;48.870;12.542;2022-09-09T11:30:35;4.47;;;4.10;;
1475;SDS011;730;48.870;12.542;2022-09-09T11:34:03;4.83;;;4.00;;
1475;SDS011;730;48.870;12.542;2022-09-09T11:38:45;3.73;;;3.40;;
1475;SDS011;730;48.870;12.542;2022-09-09T11:41:12;4.53;;;4.13;;
1475;SDS011;730;48.870;12.542;2022-09-09T11:43:43;4.97;;;4.57;;
1475;SDS011;730;48.870;12.542;2022-09-09T11:46:17;4.77;;;4.37;;
1475;SDS011;730;48.870;12.542;2022-09-09T11:48:45;3.43;;;3.10;;
1475;SDS011;730;48.870;12.542;2022-09-09T11:53:59;4.40;;;3.00;;
1475;SDS011;730;48.870;12.542;2022-09-09T11:59:01;2.83;;;2.63;;
1475;SDS011;730;48.870;12.542;2022-09-09T12:04:06;4.33;;;2.33;;
1475;SDS011;730;48.870;12.542;2022-09-09T12:06:41;3.50;;;2.60;;
1475;SDS011;730;48.870;12.542;2022-09-09T12:09:18;3.30;;;2.50;;
1475;SDS011;730;48.870;12.542;2022-09-09T12:11:51;2.27;;;2.07;;
1475;SDS011;730;48.870;12.542;2022-09-09T12:17:09;4.53;;;2.47;;
1475;SDS011;730;48.870;12.542;2022-09-09T12:19:45;2.20;;;1.80;;
1475;SDS011;730;48.870;12.542;2022-09-09T12:22:24;3.60;;;1.70;;
1475;SDS011;730;48.870;12.542;2022-09-09T12:25:20;6.63;;;1.93;;
1475;SDS011;730;48.870;12.542;2022-09-09T12:30:55;2.03;;;1.20;;
1475;SDS011;730;48.870;12.542;2022-09-09T12:33:34;3.60;;;1.80;;
1475;SDS011;730;48.870;12.542;2022-09-09T12:36:10;2.90;;;1.30;;
1475;SDS011;730;48.870;12.542;2022-09-09T12:38:39;2.33;;;1.50;;
1475;SDS011;730;48.870;12.542;2022-09-09T12:41:05;1.50;;;1.40;;
1475;SDS011;730;48.870;12.542;2022-09-09T12:43:44;2.50;;;1.43;;
1475;SDS011;730;48.870;12.542;2022-09-09T12:46:14;1.40;;;1.10;;
1475;SDS011;730;48.870;12.542;2022-09-09T12:49:41;1.67;;;1.07;;
1475;SDS011;730;48.870;12.542;2022-09-09T12:52:05;2.17;;;1.20;;
1475;SDS011;730;48.870;12.542;2022-09-09T12:54:52;3.60;;;1.47;;
1475;SDS011;730;48.870;12.542;2022-09-09T12:57:19;2.43;;;1.37;;
1475;SDS011;730;48.870;12.542;2022-09-09T12:59:47;1.60;;;0.80;;
1475;SDS011;730;48.870;12.542;2022-09-09T13:02:26;3.27;;;1.13;;
1475;SDS011;730;48.870;12.542;2022-09-09T13:04:52;1.67;;;0.90;;
1475;SDS011;730;48.870;12.542;2022-09-09T13:07:19;2.90;;;1.33;;
1475;SDS011;730;48.870;12.542;2022-09-09T13:09:46;1.70;;;1.10;;
1475;SDS011;730;48.870;12.542;2022-09-09T13:12:18;2.33;;;0.93;;
1475;SDS011;730;48.870;12.542;2022-09-09T13:14:46;1.43;;;0.87;;
1475;SDS011;730;48.870;12.542;2022-09-09T13:17:21;1.93;;;1.00;;
1475;SDS011;730;48.870;12.542;2022-09-09T13:19:56;1.50;;;0.90;;
1475;SDS011;730;48.870;12.542;2022-09-09T13:22:33;2.60;;;1.13;;
1475;SDS011;730;48.870;12.542;2022-09-09T13:27:36;1.73;;;1.07;;
1475;SDS011;730;48.870;12.542;2022-09-09T13:30:24;1.53;;;0.83;;
1475;SDS011;730;48.870;12.542;2022-09-09T13:33:00;1.67;;;1.23;;
1475;SDS011;730;48.870;12.542;2022-09-09T13:35:46;1.90;;;1.30;;
1475;SDS011;730;48.870;12.542;2022-09-09T13:38:19;1.37;;;0.90;;
1475;SDS011;730;48.870;12.542;2022-09-09T13:40:59;1.03;;;0.83;;
1475;SDS011;730;48.870;12.542;2022-09-09T13:43:29;2.27;;;0.87;;
1475;SDS011;730;48.870;12.542;2022-09-09T13:45:59;1.83;;;0.80;;
1475;SDS011;730;48.870;12.542;2022-09-09T13:48:26;2.50;;;0.90;;
1475;SDS011;730;48.870;12.542;2022-09-09T13:51:03;2.40;;;0.90;;
1475;SDS011;730;48.870;12.542;2022-09-09T13:53:32;1.20;;;0.97;;
1475;SDS011;730;48.870;12.542;2022-09-09T13:55:58;1.87;;;1.00;;
1475;SDS011;730;48.870;12.542;2022-09-09T13:58:24;1.10;;;0.70;;
1475;SDS011;730;48.870;12.542;2022-09-09T14:00:51;2.50;;;0.97;;
1475;SDS011;730;48.870;12.542;2022-09-09T14:03:18;2.20;;;1.10;;
1475;SDS011;730;48.870;12.542;2022-09-09T14:05:44;2.40;;;1.00;;
1475;SDS011;730;48.870;12.542;2022-09-09T14:08:14;1.23;;;0.80;;
1475;SDS011;730;48.870;12.542;2022-09-09T14:10:46;2.07;;;0.90;;
1475;SDS011;730;48.870;12.542;2022-09-09T14:13:12;2.13;;;0.80;;
1475;SDS011;730;48.870;12.542;2022-09-09T14:15:38;3.03;;;0.70;;
1475;SDS011;730;48.870;12.542;2022-09-09T14:18:03;1.33;;;0.77;;
1475;SDS011;730;48.870;12.542;2022-09-09T14:20:29;2.50;;;1.00;;
1475;SDS011;730;48.870;12.542;2022-09-09T14:22:55;2.07;;;1.00;;
1475;SDS011;730;48.870;12.542;2022-09-09T14:25:22;1.40;;;0.90;;
1475;SDS011;730;48.870;12.542;2022-09-09T14:27:48;1.97;;;1.00;;
1475;SDS011;730;48.870;12.542;2022-09-09T14:30:16;2.03;;;1.00;;
1475;SDS011;730;48.870;12.542;2022-09-09T14:32:41;2.00;;;0.90;;
1475;SDS011;730;48.870;12.542;2022-09-09T14:35:07;1.53;;;0.90;;
1475;SDS011;730;48.870;12.542;2022-09-09T14:37:33;2.73;;;1.07;;
1475;SDS011;730;48.870;12.542;2022-09-09T14:39:59;1.20;;;0.80;;
1475;SDS011;730;48.870;12.542;2022-09-09T14:42:25;1.30;;;0.80;;
1475;SDS011;730;48.870;12.542;2022-09-09T14:44:51;1.67;;;0.97;;
1475;SDS011;730;48.870;12.542;2022-09-09T14:47:17;1.87;;;0.93;;
1475;SDS011;730;48.870;12.542;2022-09-09T14:49:43;1.20;;;0.77;;
1475;SDS011;730;48.870;12.542;2022-09-09T14:52:09;1.67;;;0.80;;
1475;SDS011;730;48.870;12.542;2022-09-09T14:54:34;2.07;;;0.90;;
1475;SDS011;730;48.870;12.542;2022-09-09T14:57:00;2.57;;;0.93;;
1475;SDS011;730;48.870;12.542;2022-09-09T14:59:26;1.83;;;0.90;;
1475;SDS011;730;48.870;12.542;2022-09-09T15:01:51;2.90;;;0.80;;
1475;SDS011;730;48.870;12.542;2022-09-09T15:04:17;1.67;;;0.87;;
1475;SDS011;730;48.870;12.542;2022-09-09T15:06:44;1.17;;;0.77;;
1475;SDS011;730;48.870;12.542;2022-09-09T15:09:13;1.27;;;0.97;;
1475;SDS011;730;48.870;12.542;2022-09-09T15:11:39;2.37;;;1.10;;
1475;SDS011;730;48.870;12.542;2022-09-09T15:14:05;2.03;;;1.40;;
1475;SDS011;730;48.870;12.542;2022-09-09T15:16:32;1.83;;;1.30;;
1475;SDS011;730;48.870;12.542;2022-09-09T15:18:59;2.20;;;1.20;;
1475;SDS011;730;48.870;12.542;2022-09-09T15:21:30;2.47;;;1.50;;
1475;SDS011;730;48.870;12.542;2022-09-09T15:23:57;2.30;;;1.33;;
1475;SDS011;730;48.870;12.542;2022-09-09T15:26:23;2.00;;;1.70;;
1475;SDS011;730;48.870;12.542;2022-09-09T15:28:49;4.30;;;1.20;;
1475;SDS011;730;48.870;12.542;2022-09-09T15:31:17;1.20;;;0.90;;
1475;SDS011;730;48.870;12.542;2022-09-09T15:33:47;2.17;;;1.10;;
1475;SDS011;730;48.870;12.542;2022-09-09T15:36:15;2.20;;;1.23;;
1475;SDS011;730;48.870;12.542;2022-09-09T15:38:46;1.53;;;1.03;;
1475;SDS011;730;48.870;12.542;2022-09-09T15:41:13;2.17;;;1.00;;
1475;SDS011;730;48.870;12.542;2022-09-09T15:43:39;2.60;;;1.40;;
1475;SDS011;730;48.870;12.542;2022-09-09T15:46:21;3.97;;;1.80;;
1475;SDS011;730;48.870;12.542;2022-09-09T15:51:37;2.27;;;1.17;;
1475;SDS011;730;48.870;12.542;2022-09-09T15:54:07;1.30;;;1.03;;
1475;SDS011;730;48.870;12.542;2022-09-09T15:56:35;1.50;;;1.03;;
1475;SDS011;730;48.870;12.542;2022-09-09T15:59:01;5.10;;;1.10;;
1475;SDS011;730;48.870;12.542;2022-09-09T16:01:28;2.37;;;1.17;;
1475;SDS011;730;48.870;12.542;2022-09-09T16:03:55;1.90;;;1.23;;
1475;SDS011;730;48.870;12.542;2022-09-09T16:06:22;2.40;;;1.20;;
1475;SDS011;730;48.870;12.542;2022-09-09T16:08:49;4.73;;;1.20;;
1475;SDS011;730;48.870;12.542;2022-09-09T16:11:18;2.87;;;1.17;;
1475;SDS011;730;48.870;12.542;2022-09-09T16:13:47;1.50;;;0.93;;
1475;SDS011;730;48.870;12.542;2022-09-09T16:16:14;2.43;;;1.13;;
1475;SDS011;730;48.870;12.542;2022-09-09T16:18:42;3.80;;;1.40;;
1475;SDS011;730;48.870;12.542;2022-09-09T16:21:44;3.60;;;1.00;;
1475;SDS011;730;48.870;12.542;2022-09-09T16:24:05;1.70;;;1.10;;
1475;SDS011;730;48.870;12.542;2022-09-09T16:26:32;1.50;;;0.80;;
1475;SDS011;730;48.870;12.542;2022-09-09T16:28:59;2.20;;;1.03;;
1475;SDS011;730;48.870;12.542;2022-09-09T16:31:26;2.00;;;0.97;;
1475;SDS011;730;48.870;12.542;2022-09-09T16:33:53;3.40;;;1.30;;
1475;SDS011;730;48.870;12.542;2022-09-09T16:36:20;2.43;;;1.10;;
1475;SDS011;730;48.870;12.542;2022-09-09T16:38:55;2.40;;;1.17;;
1475;SDS011;730;48.870;12.542;2022-09-09T16:41:22;3.80;;;1.40;;
1475;SDS011;730;48.870;12.542;2022-09-09T16:43:52;2.30;;;1.07;;
1475;SDS011;730;48.870;12.542;2022-09-09T16:46:20;1.67;;;1.17;;
1475;SDS011;730;48.870;12.542;2022-09-09T16:48:46;1.30;;;1.00;;
1475;SDS011;730;48.870;12.542;2022-09-09T16:51:19;1.60;;;1.00;;
1475;SDS011;730;48.870;12.542;2022-09-09T16:53:48;1.60;;;1.30;;
1475;SDS011;730;48.870;12.542;2022-09-09T16:56:16;2.70;;;1.07;;
1475;SDS011;730;48.870;12.542;2022-09-09T16:58:44;1.73;;;0.90;;
1475;SDS011;730;48.870;12.542;2022-09-09T17:01:15;1.80;;;1.30;;
1475;SDS011;730;48.870;12.542;2022-09-09T17:03:40;1.40;;;0.80;;
1475;SDS011;730;48.870;12.542;2022-09-09T17:06:13;1.40;;;0.70;;
1475;SDS011;730;48.870;12.542;2022-09-09T17:08:40;1.57;;;1.20;;
1475;SDS011;730;48.870;12.542;2022-09-09T17:11:16;2.47;;;1.30;;
1475;SDS011;730;48.870;12.542;2022-09-09T17:13:43;1.50;;;1.10;;
1475;SDS011;730;48.870;12.542;2022-09-09T17:16:11;1.40;;;1.00;;
1475;SDS011;730;48.870;12.542;2022-09-09T17:18:37;1.83;;;1.07;;
1475;SDS011;730;48.870;12.542;2022-09-09T17:21:07;1.87;;;0.97;;
1475;SDS011;730;48.870;12.542;2022-09-09T17:23:39;1.10;;;0.80;;
1475;SDS011;730;48.870;12.542;2022-09-09T17:26:06;2.23;;;1.27;;
1475;SDS011;730;48.870;12.542;2022-09-09T17:28:33;1.30;;;1.00;;
1475;SDS011;730;48.870;12.542;2022-09-09T17:31:00;1.37;;;0.90;;
1475;SDS011;730;48.870;12.542;2022-09-09T17:33:28;1.37;;;1.03;;